Capitol Logistics 7352

Operating for MZN



KATL
Hartsfield - Jackson Atlanta International Airport
Atlanta, Georgia
KAFW
Fort Worth Alliance Airport
Fort Worth, Texas

Activity Log

Date Flight Route Aircraft Duration
No Flights Yet

Route Details

Aircraft Information
Primary: Boeing 737-800BCF
Backup: Boeing 757-200SF
Route Data
Distance: 648nm
Duration: 2h 04m
Recm'd Route: NASSA2 YAALL J14 LIT J66 MEEOW PONYY TRUUK2
Origin Wx: KATL 180152Z 32006KT 10SM FEW065 BKN250 17/06 A2987 RMK AO2 SLP110 T01720061
Dest. Wx: KAFW 180153Z 35010KT 10SM BKN160 OVC250 12/04 A3010 RMK AO2 SLP196 T01220044 $
Notes: